Time;durP1;ratioP1;P1;durP2;ratioP2;P2;SDS_P1;SDS_P2;PMS_P1;PMS_P2;Temp;Humidity;BMP_temperature;BMP_pressure;BME280_temperature;BME280_humidity;BME280_pressure;Samples;Min_cycle;Max_cycle;Signal;HPM_P1;HPM_P2
2023/04/05 00:03:41;;;;;;;1.52;0.70;;;;;;;0.02;94.77;101803.75;10496751;28;20048;-78
2023/04/05 00:08:48;;;;;;;1.13;0.70;;;;;;;0.01;94.63;101799.38;10492825;28;20048;-77
2023/04/05 00:13:51;;;;;;;0.80;0.80;;;;;;;-0.05;94.51;101803.63;10500029;28;20048;-77
2023/04/05 00:18:54;;;;;;;0.55;0.55;;;;;;;-0.05;94.18;101815.25;10482392;28;20528;-78
2023/04/05 00:23:58;;;;;;;0.40;0.40;;;;;;;-0.04;94.42;101819.63;10511452;28;20047;-77
2023/04/05 00:29:01;;;;;;;0.85;0.63;;;;;;;-0.04;93.96;101819.63;10507382;28;20052;-77
2023/04/05 00:34:07;;;;;;;1.60;0.70;;;;;;;-0.07;94.17;101827.25;10472900;28;20041;-77
2023/04/05 00:39:09;;;;;;;0.55;0.52;;;;;;;-0.06;94.00;101828.94;10470770;28;20412;-76
2023/04/05 00:44:12;;;;;;;1.35;0.82;;;;;;;-0.09;94.17;101827.44;10490701;28;20056;-78
2023/04/05 00:49:15;;;;;;;1.75;0.80;;;;;;;-0.03;93.76;101828.56;10465699;28;20401;-77
2023/04/05 00:54:17;;;;;;;1.35;0.70;;;;;;;-0.05;93.34;101820.66;10517542;28;20067;-76
2023/04/05 00:59:20;;;;;;;0.75;0.40;;;;;;;-0.01;93.44;101830.06;10512542;28;20040;-75
2023/04/05 01:04:29;;;;;;;0.95;0.73;;;;;;;-0.02;93.40;101825.69;10531109;28;20055;-79
2023/04/05 01:09:46;;;;;;;1.40;0.93;;;;;;;0.01;93.24;101829.06;10531592;28;20040;-77
2023/04/05 01:14:50;;;;;;;0.70;0.70;;;;;;;-0.03;93.16;101823.16;10514335;28;20048;-78
2023/04/05 01:19:59;;;;;;;0.98;0.88;;;;;;;0.04;92.83;101834.94;10507097;28;20040;-78
2023/04/05 01:25:23;;;;;;;0.80;0.80;;;;;;;-0.03;92.99;101833.97;10497012;28;20044;-77
2023/04/05 01:30:34;;;;;;;3.87;1.00;;;;;;;0.01;92.63;101838.00;10515332;28;20044;-77
2023/04/05 01:35:43;;;;;;;0.65;0.47;;;;;;;-0.01;92.69;101848.09;10509626;28;20419;-78
2023/04/05 01:40:46;;;;;;;0.90;0.80;;;;;;;-0.03;92.59;101847.44;10504983;28;20040;-76
2023/04/05 01:45:48;;;;;;;1.13;0.70;;;;;;;-0.03;92.18;101867.19;10509126;28;20041;-77
2023/04/05 01:50:50;;;;;;;2.22;0.80;;;;;;;-0.09;92.46;101861.69;10509189;28;20033;-76
2023/04/05 01:55:59;;;;;;;0.88;0.82;;;;;;;-0.06;92.68;101867.53;10497750;28;20044;-76
2023/04/05 02:01:01;;;;;;;1.53;1.13;;;;;;;-0.08;92.60;101868.75;10497265;28;20040;-77
2023/04/05 02:06:04;;;;;;;1.23;0.80;;;;;;;-0.10;92.53;101874.34;10535985;28;20052;-77
2023/04/05 02:11:09;;;;;;;0.80;0.80;;;;;;;-0.10;92.05;101881.59;10535946;28;20028;-77
2023/04/05 02:16:11;;;;;;;2.22;1.00;;;;;;;-0.09;92.36;101877.88;10515225;28;20037;-76
2023/04/05 02:21:17;;;;;;;1.58;0.77;;;;;;;-0.17;92.42;101864.47;10490894;28;20423;-76
2023/04/05 02:26:20;;;;;;;0.40;0.40;;;;;;;-0.13;92.76;101872.00;10502147;28;20051;-77
2023/04/05 02:31:22;;;;;;;2.42;0.85;;;;;;;-0.09;92.69;101867.06;10503399;28;20518;-79
2023/04/05 02:36:27;;;;;;;1.58;1.08;;;;;;;-0.07;92.28;101862.34;10514348;28;20041;-77
2023/04/05 02:41:29;;;;;;;1.17;0.90;;;;;;;-0.09;92.35;101859.81;10548889;28;20048;-77
2023/04/05 02:46:31;;;;;;;1.58;1.42;;;;;;;-0.16;92.94;101856.19;10542473;28;20539;-77
2023/04/05 02:51:34;;;;;;;1.83;1.00;;;;;;;-0.19;92.47;101855.69;10514476;28;20056;-76
2023/04/05 02:56:41;;;;;;;2.78;1.13;;;;;;;-0.18;92.74;101857.34;10524799;28;20051;-80
2023/04/05 03:01:48;;;;;;;;;;;;;;;-0.23;92.89;101851.66;10527797;28;20039;-77
2023/04/05 03:06:58;;;;;;;0.93;0.70;;;;;;;-0.21;93.36;101852.31;10528972;28;19916;-78
2023/04/05 03:12:02;;;;;;;2.03;1.30;;;;;;;-0.26;93.26;101838.56;10499476;28;20044;-77
2023/04/05 03:17:07;;;;;;;1.52;0.95;;;;;;;-0.31;93.09;101848.03;10493760;28;20036;-77
2023/04/05 03:22:14;;;;;;;0.80;0.65;;;;;;;-0.32;93.60;101853.59;10505173;28;20134;-77
2023/04/05 03:27:17;;;;;;;1.00;0.90;;;;;;;-0.26;93.78;101852.88;10515353;28;20048;-77
2023/04/05 03:32:36;;;;;;;1.17;1.00;;;;;;;-0.25;93.45;101869.91;10512333;28;20032;-78
2023/04/05 03:37:49;;;;;;;0.45;0.38;;;;;;;-0.23;93.46;101865.16;10527573;28;20041;-78
2023/04/05 03:42:53;;;;;;;2.95;1.00;;;;;;;-0.23;93.75;101873.25;10532900;28;20051;-76
2023/04/05 03:47:56;;;;;;;2.33;1.13;;;;;;;-0.25;93.52;101884.22;10549036;28;20033;-77
2023/04/05 03:52:59;;;;;;;1.48;0.90;;;;;;;-0.24;93.44;101875.09;10516910;28;20051;-76
2023/04/05 03:58:01;;;;;;;0.52;0.40;;;;;;;-0.15;93.11;101865.94;10523633;28;20040;-77
2023/04/05 04:03:08;;;;;;;1.98;1.00;;;;;;;-0.20;93.39;101884.50;10509450;28;20127;-77
2023/04/05 04:08:14;;;;;;;1.20;1.00;;;;;;;-0.19;93.49;101888.03;10523452;28;20040;-77
2023/04/05 04:13:19;;;;;;;2.88;1.50;;;;;;;-0.22;93.29;101889.25;10542793;28;20052;-77
2023/04/05 04:18:26;;;;;;;1.23;0.90;;;;;;;-0.24;93.79;101891.28;10497932;28;20552;-77
2023/04/05 04:24:07;;;;;;;1.55;1.00;;;;;;;-0.18;93.72;101884.31;10514810;28;20075;-79
2023/04/05 04:29:29;;;;;;;2.13;1.10;;;;;;;-0.19;93.57;101905.06;10550569;28;20094;-77
2023/04/05 04:34:45;;;;;;;2.13;1.45;;;;;;;-0.20;93.66;101916.88;10495592;28;20040;-77
2023/04/05 04:40:16;;;;;;;2.83;1.50;;;;;;;-0.14;94.15;101918.03;10473533;28;20053;-76
2023/04/05 04:45:49;;;;;;;2.05;1.17;;;;;;;-0.11;93.89;101917.69;10504455;28;20055;-77
2023/04/05 04:50:57;;;;;;;1.35;0.95;;;;;;;-0.04;93.72;101918.63;10510337;28;20048;-77
2023/04/05 04:56:06;;;;;;;1.83;1.00;;;;;;;-0.01;93.38;101920.97;10505458;28;20141;-77
2023/04/05 05:01:08;;;;;;;1.77;1.10;;;;;;;0.04;93.46;101937.47;10470470;28;20047;-77
2023/04/05 05:06:11;;;;;;;1.42;1.10;;;;;;;0.12;93.21;101941.94;10521914;28;20032;-76
2023/04/05 05:11:22;;;;;;;2.38;1.30;;;;;;;0.17;93.27;101950.34;10494818;28;20527;-78
2023/04/05 05:16:26;;;;;;;2.38;1.42;;;;;;;0.12;92.70;101961.69;10532243;28;20040;-77
2023/04/05 05:21:30;;;;;;;1.90;1.05;;;;;;;0.12;92.94;101971.63;10527926;28;20051;-78
2023/04/05 05:26:36;;;;;;;2.95;1.38;;;;;;;0.14;92.96;101962.34;10480527;28;20048;-76
2023/04/05 05:31:39;;;;;;;2.47;1.25;;;;;;;0.15;92.84;101980.22;10505399;28;20048;-80
2023/04/05 05:36:41;;;;;;;1.35;1.10;;;;;;;0.18;93.16;101977.19;10529823;28;20357;-78
2023/04/05 05:41:43;;;;;;;1.55;1.10;;;;;;;0.21;92.86;101998.41;10534858;28;20418;-77
2023/04/05 05:46:46;;;;;;;1.23;0.90;;;;;;;0.25;92.65;101999.72;10495783;28;20049;-77
2023/04/05 05:51:48;;;;;;;2.28;1.05;;;;;;;0.30;92.56;102001.88;10501520;28;20049;-78
2023/04/05 05:56:52;;;;;;;1.30;1.17;;;;;;;0.38;92.43;102006.38;10466866;28;20413;-78
2023/04/05 06:01:55;;;;;;;1.92;1.35;;;;;;;0.36;92.28;102006.56;10473105;28;20041;-77
2023/04/05 06:06:58;;;;;;;2.42;1.52;;;;;;;0.38;92.09;102003.69;10518594;28;20114;-77
2023/04/05 06:12:03;;;;;;;4.18;1.35;;;;;;;0.44;92.24;101987.59;10510513;28;20135;-78
2023/04/05 06:17:05;;;;;;;1.65;1.30;;;;;;;0.50;92.04;101988.72;10509603;28;20567;-77
2023/04/05 06:22:07;;;;;;;2.88;1.02;;;;;;;0.61;92.41;101996.41;10528074;28;20048;-77
2023/04/05 06:27:09;;;;;;;1.40;1.00;;;;;;;0.69;91.68;102006.28;10499780;28;20041;-76
2023/04/05 06:32:12;;;;;;;1.40;1.13;;;;;;;0.74;91.09;102006.59;10512707;28;20435;-76
2023/04/05 06:37:14;;;;;;;2.63;1.63;;;;;;;0.76;91.39;102027.00;10507162;28;20063;-77
2023/04/05 06:42:19;;;;;;;3.40;1.60;;;;;;;0.76;90.78;102016.19;10529611;28;20040;-78
2023/04/05 06:47:50;;;;;;;1.70;1.10;;;;;;;0.83;90.70;102009.00;10488145;28;20049;-77
2023/04/05 06:52:56;;;;;;;2.08;0.68;;;;;;;0.85;90.85;102001.56;10512779;28;20048;-79
2023/04/05 06:58:04;;;;;;;2.75;1.70;;;;;;;0.89;90.48;102007.47;10520000;28;20043;-77
2023/04/05 07:03:06;;;;;;;1.90;1.70;;;;;;;1.02;90.59;102014.91;10531140;28;20044;-77
2023/04/05 07:08:10;;;;;;;2.65;1.55;;;;;;;1.22;89.81;102026.03;10493189;28;20043;-78
2023/04/05 07:13:15;;;;;;;3.35;1.30;;;;;;;1.41;89.67;102020.91;10532337;28;20547;-78
2023/04/05 07:18:18;;;;;;;2.13;1.55;;;;;;;1.60;88.51;102026.78;10534626;28;20067;-78
2023/04/05 07:23:21;;;;;;;3.25;2.00;;;;;;;1.75;88.38;102035.72;10532362;28;20407;-78
2023/04/05 07:28:23;;;;;;;2.60;1.70;;;;;;;1.78;87.21;102019.94;10530972;28;20040;-78
2023/04/05 07:33:26;;;;;;;2.85;1.63;;;;;;;2.02;86.27;102020.63;10532191;28;20037;-78
2023/04/05 07:38:29;;;;;;;1.83;1.40;;;;;;;2.31;85.29;102027.81;10522856;28;20423;-78
2023/04/05 07:43:32;;;;;;;2.90;1.13;;;;;;;2.47;84.27;102022.16;10550552;28;20519;-78
2023/04/05 07:48:36;;;;;;;4.45;1.85;;;;;;;2.90;83.23;102022.94;10519132;28;20484;-78
2023/04/05 07:53:39;;;;;;;1.63;1.38;;;;;;;2.99;81.54;102029.06;10500306;28;20055;-79
2023/04/05 07:58:42;;;;;;;4.05;1.60;;;;;;;3.17;81.59;102026.69;10555436;28;20048;-80
2023/04/05 08:03:44;;;;;;;2.40;1.45;;;;;;;3.07;80.82;102036.19;10556293;28;20420;-78
2023/04/05 08:08:46;;;;;;;0.63;0.63;;;;;;;3.11;80.77;102022.03;10532133;28;20052;-77
2023/04/05 08:13:49;;;;;;;1.55;1.42;;;;;;;3.17;80.50;102033.97;10509789;28;20048;-77
2023/04/05 08:18:51;;;;;;;4.10;1.15;;;;;;;3.19;80.13;102031.91;10501587;28;20049;-77
2023/04/05 08:23:53;;;;;;;1.85;0.88;;;;;;;3.50;79.42;102045.06;10537625;28;20032;-82
2023/04/05 08:28:55;;;;;;;0.95;0.82;;;;;;;3.40;79.86;102041.84;10520529;28;20036;-79
2023/04/05 08:33:58;;;;;;;1.42;0.80;;;;;;;3.21;80.05;102038.81;10535863;28;20071;-80
2023/04/05 08:39:00;;;;;;;1.23;0.93;;;;;;;3.15;80.58;102045.03;10541663;28;20050;-80
2023/04/05 08:44:04;;;;;;;1.42;1.17;;;;;;;3.13;80.92;102041.69;10548197;28;20053;-79
2023/04/05 08:49:10;;;;;;;1.38;1.25;;;;;;;3.18;80.55;102055.47;10516238;28;20407;-79
2023/04/05 08:54:13;;;;;;;1.92;1.15;;;;;;;3.10;79.85;102063.75;10512454;28;20064;-78
2023/04/05 08:59:18;;;;;;;2.08;1.00;;;;;;;2.98;80.89;102065.34;10518791;28;20334;-79
2023/04/05 09:04:23;;;;;;;0.60;0.60;;;;;;;2.90;81.24;102055.47;10498825;28;20125;-80
2023/04/05 09:09:25;;;;;;;0.70;0.70;;;;;;;3.08;81.22;102065.81;10513342;28;20044;-78
2023/04/05 09:14:29;;;;;;;1.33;1.05;;;;;;;3.23;80.64;102080.13;10517611;28;20048;-78
2023/04/05 09:19:31;;;;;;;1.88;0.93;;;;;;;3.14;80.37;102103.03;10530973;28;20131;-79
2023/04/05 09:24:40;;;;;;;1.63;0.90;;;;;;;3.00;81.28;102096.66;10530525;28;20334;-79
2023/04/05 09:29:44;;;;;;;1.65;1.10;;;;;;;3.09;81.37;102085.66;10524785;28;20040;-78
2023/04/05 09:34:47;;;;;;;1.80;1.05;;;;;;;3.16;80.94;102095.53;10511146;28;20056;-77
2023/04/05 09:40:03;;;;;;;0.90;0.80;;;;;;;3.31;80.80;102099.00;10495206;28;20048;-80
2023/04/05 09:45:06;;;;;;;0.55;0.43;;;;;;;3.47;79.94;102084.28;10534407;28;20044;-78
2023/04/05 09:50:21;;;;;;;3.45;0.95;;;;;;;3.46;79.92;102108.88;10515312;28;20063;-78
2023/04/05 09:55:26;;;;;;;0.47;0.47;;;;;;;3.55;79.30;102096.84;10539363;28;20048;-83
2023/04/05 10:00:31;;;;;;;3.47;0.98;;;;;;;3.56;79.46;102109.38;10566830;28;20055;-78
2023/04/05 10:05:33;;;;;;;1.65;1.00;;;;;;;3.60;79.31;102091.66;10484359;28;20041;-79
2023/04/05 10:10:38;;;;;;;3.17;1.40;;;;;;;3.60;78.96;102094.38;10511175;28;20496;-79
2023/04/05 10:15:45;;;;;;;2.42;1.00;;;;;;;3.60;79.69;102107.94;10515292;28;20036;-78
2023/04/05 10:20:49;;;;;;;2.30;1.17;;;;;;;3.70;79.07;102105.72;10552356;28;20041;-78
2023/04/05 10:25:57;;;;;;;1.30;0.90;;;;;;;3.79;79.14;102107.22;10530416;28;20044;-78
2023/04/05 10:31:37;;;;;;;1.38;0.88;;;;;;;3.75;78.46;102124.94;10528566;28;20048;-78
2023/04/05 10:37:00;;;;;;;3.28;1.20;;;;;;;3.59;79.54;102141.53;10479373;28;20056;-77
2023/04/05 10:42:11;;;;;;;1.33;1.08;;;;;;;3.70;78.97;102123.88;10484855;28;20048;-79
2023/04/05 10:47:16;;;;;;;4.25;1.40;;;;;;;3.78;78.94;102129.13;10545760;28;20182;-78
2023/04/05 10:52:18;;;;;;;2.25;1.40;;;;;;;3.79;78.59;102128.09;10532106;28;20059;-78
2023/04/05 10:57:21;;;;;;;1.52;0.95;;;;;;;3.88;79.09;102132.34;10528965;28;20059;-77
2023/04/05 11:02:24;;;;;;;2.13;1.20;;;;;;;3.81;78.54;102131.44;10538044;28;20040;-79
2023/04/05 11:07:43;;;;;;;0.55;0.43;;;;;;;3.81;78.44;102140.44;10495571;28;20044;-80
2023/04/05 11:12:45;;;;;;;1.90;0.90;;;;;;;3.94;78.53;102139.69;10549166;28;20048;-79
2023/04/05 11:18:04;;;;;;;1.20;1.00;;;;;;;4.01;78.62;102139.72;10526586;28;20040;-77
2023/04/05 11:23:07;;;;;;;4.45;1.35;;;;;;;4.09;78.20;102134.94;10539323;28;20119;-78
2023/04/05 11:28:21;;;;;;;2.08;1.40;;;;;;;4.15;77.98;102149.59;10532074;28;20056;-78
2023/04/05 11:33:57;;;;;;;2.20;1.33;;;;;;;4.32;77.35;102158.25;10497967;28;20037;-77
2023/04/05 11:39:18;;;;;;;1.27;1.02;;;;;;;4.37;77.13;102162.06;10529867;28;20044;-78
2023/04/05 11:44:24;;;;;;;1.77;1.23;;;;;;;4.29;77.22;102164.94;10551422;28;20427;-79
2023/04/05 11:49:27;;;;;;;2.45;1.40;;;;;;;4.18;77.52;102189.97;10501076;28;20435;-78
2023/04/05 11:54:33;;;;;;;1.60;1.10;;;;;;;3.94;78.64;102175.81;10513141;28;20059;-77
2023/04/05 11:59:36;;;;;;;1.45;1.27;;;;;;;3.99;78.28;102183.34;10530914;28;20142;-79
2023/04/05 12:04:40;;;;;;;1.83;1.20;;;;;;;4.01;78.74;102169.59;10526575;28;20130;-77
2023/04/05 12:10:03;;;;;;;2.45;0.82;;;;;;;4.18;78.73;102182.66;10497041;28;20036;-78
2023/04/05 12:15:09;;;;;;;2.33;1.90;;;;;;;4.12;78.22;102182.59;10502960;28;20052;-78
2023/04/05 12:20:13;;;;;;;2.72;1.67;;;;;;;3.96;78.56;102185.63;10521363;28;20051;-78
2023/04/05 12:25:17;;;;;;;2.50;1.48;;;;;;;3.92;79.19;102180.63;10546458;28;20044;-78
2023/04/05 12:30:21;;;;;;;1.60;1.10;;;;;;;4.03;78.91;102170.25;10545817;28;20048;-79
2023/04/05 12:35:33;;;;;;;3.35;1.77;;;;;;;3.96;78.81;102182.94;10538774;28;20044;-77
2023/04/05 12:40:36;;;;;;;3.42;1.65;;;;;;;3.86;79.01;102172.44;10499281;28;20036;-77
2023/04/05 12:45:38;;;;;;;1.92;1.40;;;;;;;3.77;78.97;102179.88;10525768;28;20044;-79
2023/04/05 12:50:43;;;;;;;2.95;1.50;;;;;;;3.74;80.05;102179.44;10566888;28;20040;-78
2023/04/05 12:55:53;;;;;;;1.52;1.30;;;;;;;3.71;79.69;102175.25;10532085;28;20049;-78
2023/04/05 13:01:01;;;;;;;2.17;1.20;;;;;;;3.68;79.75;102172.09;10529915;28;20131;-79
2023/04/05 13:06:04;;;;;;;1.27;1.02;;;;;;;3.51;80.96;102179.69;10469477;28;20381;-78
2023/04/05 13:11:06;;;;;;;0.38;0.38;;;;;;;3.48;81.16;102170.09;10544700;28;20048;-78
2023/04/05 13:16:08;;;;;;;2.40;1.80;;;;;;;3.51;80.56;102168.84;10550827;28;20038;-80
2023/04/05 13:21:10;;;;;;;2.80;1.90;;;;;;;3.46;81.63;102188.41;10539078;28;20408;-79
2023/04/05 13:26:12;;;;;;;2.85;1.80;;;;;;;3.48;81.25;102202.66;10520906;28;20044;-83
2023/04/05 13:31:15;;;;;;;3.60;2.25;;;;;;;3.47;80.92;102178.41;10516525;28;20055;-79
2023/04/05 13:36:17;;;;;;;3.63;1.80;;;;;;;3.52;81.42;102184.94;10522350;28;20503;-78
2023/04/05 13:41:20;;;;;;;3.10;1.90;;;;;;;3.37;81.24;102184.19;10543740;28;20049;-78
2023/04/05 13:46:22;;;;;;;3.35;2.08;;;;;;;3.41;81.08;102181.91;10534461;28;20051;-78
2023/04/05 13:51:24;;;;;;;3.47;1.67;;;;;;;3.37;82.11;102188.75;10528855;28;20052;-78
2023/04/05 13:56:26;;;;;;;3.55;1.60;;;;;;;3.35;81.96;102185.41;10485089;28;20037;-78
2023/04/05 14:01:29;;;;;;;2.20;1.58;;;;;;;3.24;82.05;102209.31;10512336;28;20044;-81
2023/04/05 14:06:31;;;;;;;3.35;1.70;;;;;;;3.16;82.23;102184.19;10456301;28;20051;-77
2023/04/05 14:11:34;;;;;;;2.03;1.33;;;;;;;3.16;82.40;102190.47;10511178;28;20515;-77
2023/04/05 14:16:36;;;;;;;2.28;1.70;;;;;;;3.22;82.45;102197.81;10522959;28;20052;-78
2023/04/05 14:21:39;;;;;;;4.07;1.60;;;;;;;3.28;82.85;102196.19;10515593;28;20044;-78
2023/04/05 14:26:48;;;;;;;4.70;2.08;;;;;;;3.22;82.58;102214.09;10531531;28;20423;-78
2023/04/05 14:31:50;;;;;;;3.17;1.73;;;;;;;3.06;82.46;102194.53;10490749;28;20052;-77
2023/04/05 14:36:55;;;;;;;2.85;1.60;;;;;;;2.92;83.45;102191.66;10524408;28;20048;-78
2023/04/05 14:41:58;;;;;;;1.88;1.42;;;;;;;2.86;83.79;102197.03;10519531;28;20048;-78
2023/04/05 14:47:00;;;;;;;1.58;1.40;;;;;;;2.81;83.83;102205.75;10517959;28;20051;-77
2023/04/05 14:52:03;;;;;;;3.50;1.50;;;;;;;2.80;84.44;102184.25;10515839;28;20404;-79
2023/04/05 14:57:05;;;;;;;2.67;1.92;;;;;;;2.83;84.40;102205.56;10507532;28;20040;-79
2023/04/05 15:02:07;;;;;;;2.42;1.80;;;;;;;2.77;84.12;102188.16;10492896;28;20040;-78
2023/04/05 15:07:09;;;;;;;4.00;2.00;;;;;;;2.66;84.57;102203.06;10501069;28;20060;-78
2023/04/05 15:12:12;;;;;;;3.63;2.13;;;;;;;2.61;85.07;102186.56;10527040;28;20034;-78
2023/04/05 15:17:14;;;;;;;2.60;1.70;;;;;;;2.60;85.16;102189.44;10521864;28;20040;-78
2023/04/05 15:22:16;;;;;;;3.05;1.80;;;;;;;2.53;85.05;102183.94;10497174;28;20040;-79
2023/04/05 15:27:18;;;;;;;2.58;1.90;;;;;;;2.50;85.36;102176.19;10508387;28;20037;-78
2023/04/05 15:32:20;;;;;;;3.35;2.00;;;;;;;2.47;86.21;102192.00;10497279;28;20044;-77
2023/04/05 15:37:23;;;;;;;3.15;1.90;;;;;;;2.46;85.75;102193.03;10504636;28;20037;-77
2023/04/05 15:42:25;;;;;;;2.67;2.00;;;;;;;2.42;85.79;102193.38;10508312;28;20052;-79
2023/04/05 15:47:27;;;;;;;3.92;1.95;;;;;;;2.42;86.09;102195.25;10520670;28;20040;-77
2023/04/05 15:52:29;;;;;;;3.95;2.15;;;;;;;2.44;86.06;102200.50;10518575;28;20048;-77
2023/04/05 15:57:31;;;;;;;3.10;1.92;;;;;;;2.38;86.32;102196.66;10501603;28;20055;-78
2023/04/05 16:02:36;;;;;;;4.53;2.00;;;;;;;2.40;86.68;102200.03;10491561;28;20043;-77
2023/04/05 16:07:38;;;;;;;2.92;1.80;;;;;;;2.44;87.34;102205.94;10480568;28;20041;-77
2023/04/05 16:12:40;;;;;;;6.03;2.20;;;;;;;2.37;86.74;102203.94;10508421;28;20051;-77
2023/04/05 16:17:43;;;;;;;4.03;1.70;;;;;;;2.41;86.50;102204.41;10506173;28;20045;-79
2023/04/05 16:22:45;;;;;;;3.13;2.38;;;;;;;2.37;85.94;102203.13;10494075;28;20044;-78
2023/04/05 16:27:58;;;;;;;4.45;1.95;;;;;;;2.32;84.63;102210.97;10523842;28;20047;-77
2023/04/05 16:33:03;;;;;;;2.95;2.10;;;;;;;2.28;84.42;102221.34;10505992;28;20447;-77
2023/04/05 16:38:08;;;;;;;3.40;2.10;;;;;;;2.28;83.50;102223.22;10500609;28;20049;-79
2023/04/05 16:43:10;;;;;;;4.40;2.20;;;;;;;2.29;82.54;102227.59;10510919;28;20040;-78
2023/04/05 16:48:13;;;;;;;3.92;1.85;;;;;;;2.31;81.49;102217.41;10485081;28;20495;-76
2023/04/05 16:53:15;;;;;;;4.93;1.90;;;;;;;2.37;80.95;102213.94;10506385;28;20060;-78
2023/04/05 16:58:17;;;;;;;4.43;2.00;;;;;;;2.33;79.64;102218.06;10512132;28;20051;-78
2023/04/05 17:03:20;;;;;;;4.25;1.85;;;;;;;2.30;79.75;102226.56;10523006;28;20507;-78
2023/04/05 17:08:23;;;;;;;4.30;1.80;;;;;;;2.25;79.54;102229.81;10503828;28;20040;-77
2023/04/05 17:13:25;;;;;;;4.82;2.47;;;;;;;2.24;78.88;102228.16;10506401;28;20048;-80
2023/04/05 17:18:27;;;;;;;3.33;1.75;;;;;;;2.19;78.64;102232.44;10499362;28;20048;-78
2023/04/05 17:23:32;;;;;;;2.97;2.05;;;;;;;2.09;78.44;102243.56;10507576;28;20905;-81
2023/04/05 17:28:34;;;;;;;3.92;1.90;;;;;;;2.07;78.77;102245.59;10478046;28;20407;-79
2023/04/05 17:33:36;;;;;;;5.43;2.30;;;;;;;2.06;78.84;102239.34;10510346;28;20119;-84
2023/04/05 17:38:39;;;;;;;6.28;1.95;;;;;;;2.04;78.60;102251.41;10513976;28;20062;-81
2023/04/05 17:43:41;;;;;;;3.95;2.03;;;;;;;2.02;78.63;102245.31;10532426;28;20438;-80
2023/04/05 17:48:43;;;;;;;4.88;1.98;;;;;;;2.02;78.84;102237.22;10514000;28;20495;-79
2023/04/05 17:53:45;;;;;;;4.30;1.98;;;;;;;1.98;79.03;102250.28;10495024;28;20056;-79
2023/04/05 17:58:47;;;;;;;4.72;2.03;;;;;;;1.90;79.31;102247.63;10524597;28;20575;-79
2023/04/05 18:03:50;;;;;;;3.55;1.75;;;;;;;1.84;79.83;102250.25;10531365;28;20051;-79
2023/04/05 18:08:52;;;;;;;3.25;2.00;;;;;;;1.88;80.58;102260.53;10517535;28;20037;-79
2023/04/05 18:13:57;;;;;;;3.45;1.85;;;;;;;1.83;80.63;102260.25;10513121;28;20044;-80
2023/04/05 18:18:59;;;;;;;2.45;1.80;;;;;;;1.91;80.99;102262.88;10503204;28;20040;-75
2023/04/05 18:24:01;;;;;;;2.58;1.90;;;;;;;1.90;81.02;102266.59;10522719;28;20048;-79
2023/04/05 18:29:04;;;;;;;2.70;1.88;;;;;;;1.90;81.00;102265.75;10512316;28;20134;-79
2023/04/05 18:34:06;;;;;;;1.60;1.15;;;;;;;1.92;81.36;102263.72;10470109;28;20046;-79
2023/04/05 18:39:08;;;;;;;2.80;1.90;;;;;;;1.92;81.50;102274.56;10510720;28;20079;-78
2023/04/05 18:44:14;;;;;;;2.38;1.70;;;;;;;1.89;81.72;102278.44;10499779;28;20037;-78
2023/04/05 18:49:18;;;;;;;2.88;1.67;;;;;;;1.88;82.39;102281.34;10519145;28;20511;-78
2023/04/05 18:54:21;;;;;;;4.18;1.92;;;;;;;1.87;82.25;102266.97;10458327;28;20520;-77
2023/04/05 18:59:23;;;;;;;1.83;1.50;;;;;;;1.87;82.47;102280.50;10475510;28;20047;-78
2023/04/05 19:04:25;;;;;;;4.07;1.92;;;;;;;1.89;83.37;102275.72;10480071;28;20052;-78
2023/04/05 19:09:28;;;;;;;2.47;1.60;;;;;;;1.96;83.31;102287.53;10462781;28;20045;-79
2023/04/05 19:14:30;;;;;;;4.65;2.28;;;;;;;1.99;82.88;102280.91;10487651;28;20037;-78
2023/04/05 19:19:32;;;;;;;2.38;1.38;;;;;;;2.04;83.54;102287.44;10448301;28;20037;-79
2023/04/05 19:24:34;;;;;;;2.08;1.45;;;;;;;2.11;83.10;102285.69;10467811;28;20040;-79
2023/04/05 19:29:36;;;;;;;1.00;0.90;;;;;;;2.14;83.85;102300.72;10462724;28;20044;-79
2023/04/05 19:34:39;;;;;;;1.70;1.08;;;;;;;2.25;83.63;102294.81;10444197;28;20063;-77
2023/04/05 19:39:41;;;;;;;3.05;1.35;;;;;;;2.32;83.30;102297.66;10475796;28;20052;-77
2023/04/05 19:44:53;;;;;;;2.08;1.60;;;;;;;2.30;84.62;102315.97;10479134;28;20044;-78
2023/04/05 19:49:57;;;;;;;2.75;1.70;;;;;;;2.28;84.00;102301.78;10470766;28;20047;-78
2023/04/05 19:55:01;;;;;;;2.60;1.40;;;;;;;2.19;84.67;102314.53;10507793;28;20428;-78
2023/04/05 20:00:27;;;;;;;2.75;1.90;;;;;;;2.15;84.59;102323.22;10507716;28;20060;-78
2023/04/05 20:05:58;;;;;;;3.90;1.90;;;;;;;2.13;85.57;102336.09;10528232;28;20040;-77
2023/04/05 20:11:04;;;;;;;3.92;2.03;;;;;;;2.05;85.33;102332.44;10485290;28;20036;-78
2023/04/05 20:16:07;;;;;;;2.20;1.20;;;;;;;2.06;86.33;102326.00;10516162;28;20036;-79
2023/04/05 20:21:10;;;;;;;5.32;1.88;;;;;;;2.00;86.08;102326.75;10482109;28;20072;-78
2023/04/05 20:26:14;;;;;;;2.03;1.70;;;;;;;1.97;86.64;102320.84;10492119;28;20047;-78
2023/04/05 20:31:19;;;;;;;1.58;1.45;;;;;;;1.99;86.88;102325.06;10514005;28;20111;-77
2023/04/05 20:36:34;;;;;;;2.67;1.73;;;;;;;1.99;86.64;102335.03;10494775;28;20053;-77
2023/04/05 20:41:37;;;;;;;2.05;1.60;;;;;;;1.99;86.25;102335.88;10522109;28;20051;-77
2023/04/05 20:46:43;;;;;;;1.98;1.73;;;;;;;1.94;86.92;102349.13;10501868;28;20040;-79
2023/04/05 20:51:49;;;;;;;3.20;1.80;;;;;;;1.92;86.89;102345.78;10498429;28;20048;-80
2023/04/05 20:56:54;;;;;;;3.30;1.83;;;;;;;1.96;87.69;102340.84;10500636;28;20032;-79
2023/04/05 21:01:57;;;;;;;2.70;1.85;;;;;;;1.94;87.69;102341.03;10528633;28;20040;-79
2023/04/05 21:07:00;;;;;;;3.70;1.50;;;;;;;1.92;87.58;102334.09;10509582;28;20040;-78
2023/04/05 21:12:02;;;;;;;1.85;1.40;;;;;;;1.98;87.79;102338.78;10492478;28;20043;-78
2023/04/05 21:17:05;;;;;;;2.00;1.50;;;;;;;1.95;87.73;102340.00;10510566;28;20036;-78
2023/04/05 21:22:08;;;;;;;2.00;1.60;;;;;;;1.92;87.93;102343.06;10487193;28;20138;-79
2023/04/05 21:27:10;;;;;;;2.70;1.70;;;;;;;1.82;88.19;102345.16;10507935;28;20495;-79
2023/04/05 21:32:12;;;;;;;2.78;1.40;;;;;;;1.89;87.94;102340.69;10526631;28;20036;-79
2023/04/05 21:37:18;;;;;;;2.67;1.88;;;;;;;1.86;88.38;102340.22;10526213;28;20036;-78
2023/04/05 21:42:21;;;;;;;2.75;1.63;;;;;;;1.77;88.18;102344.88;10508669;28;20044;-79
2023/04/05 21:47:23;;;;;;;0.63;0.55;;;;;;;1.65;88.40;102347.16;10508701;28;20041;-78
2023/04/05 21:52:26;;;;;;;3.00;1.60;;;;;;;1.63;88.73;102342.97;10489484;28;20063;-78
2023/04/05 21:57:28;;;;;;;2.05;1.55;;;;;;;1.54;88.96;102347.56;10517689;28;20039;-78
2023/04/05 22:02:30;;;;;;;2.05;1.35;;;;;;;1.49;89.72;102344.56;10514159;28;20040;-79
2023/04/05 22:07:36;;;;;;;2.25;1.52;;;;;;;1.51;89.56;102350.63;10498913;28;20135;-81
2023/04/05 22:12:39;;;;;;;1.67;1.48;;;;;;;1.49;89.39;102364.34;10529826;28;20040;-80
2023/04/05 22:17:41;;;;;;;2.20;1.45;;;;;;;1.51;89.46;102367.72;10526743;28;20044;-79
2023/04/05 22:22:43;;;;;;;2.15;1.40;;;;;;;1.60;90.11;102363.09;10527431;28;20036;-79
2023/04/05 22:27:50;;;;;;;2.58;1.80;;;;;;;1.60;89.49;102367.69;10532931;28;20508;-79
2023/04/05 22:32:52;;;;;;;2.38;1.58;;;;;;;1.65;89.52;102362.56;10530601;28;20051;-79
2023/04/05 22:37:54;;;;;;;1.75;1.60;;;;;;;1.60;89.52;102356.84;10512031;28;20487;-81
2023/04/05 22:42:57;;;;;;;2.13;1.52;;;;;;;1.52;89.36;102360.44;10495115;28;20040;-78
2023/04/05 22:47:59;;;;;;;1.88;1.13;;;;;;;1.51;89.80;102359.59;10513701;28;20043;-79
2023/04/05 22:53:01;;;;;;;3.08;1.50;;;;;;;1.50;89.70;102360.63;10556755;28;20044;-79
2023/04/05 22:58:04;;;;;;;2.10;1.80;;;;;;;1.46;89.81;102353.06;10512602;28;20040;-79
2023/04/05 23:03:06;;;;;;;3.20;1.60;;;;;;;1.45;89.72;102365.72;10515539;28;20040;-78
2023/04/05 23:08:08;;;;;;;2.28;1.92;;;;;;;1.44;89.85;102374.03;10522346;28;20036;-79
2023/04/05 23:13:10;;;;;;;2.63;1.90;;;;;;;1.41;90.12;102368.97;10551800;28;20503;-79
2023/04/05 23:18:19;;;;;;;5.60;2.10;;;;;;;1.36;90.18;102358.69;10479436;28;20524;-79
2023/04/05 23:23:21;;;;;;;4.00;2.08;;;;;;;1.33;90.67;102367.16;10535796;28;20047;-78
2023/04/05 23:28:24;;;;;;;2.35;1.85;;;;;;;1.28;90.77;102369.56;10477511;28;20078;-79
2023/04/05 23:33:26;;;;;;;2.78;2.03;;;;;;;1.21;91.32;102368.56;10517309;28;20407;-80
2023/04/05 23:38:28;;;;;;;2.38;1.60;;;;;;;1.06;90.96;102365.78;10488769;28;20499;-79